createdAt,value
2023-04-27T05:03:30.953Z,42.19
2023-04-27T05:04:31.926Z,41.06
2023-04-27T05:05:31.882Z,40.89
2023-04-27T05:06:31.917Z,40.77
2023-04-27T05:07:30.947Z,40.65
2023-04-27T05:08:32.000Z,40.61
2023-04-27T05:09:32.021Z,40.51
2023-04-27T05:10:32.018Z,40.48
2023-04-27T05:11:31.011Z,40.43
2023-04-27T05:12:32.058Z,40.36
2023-04-27T05:13:32.133Z,40.32
2023-04-27T05:14:32.182Z,40.30
2023-04-27T05:15:32.183Z,40.27
2023-04-27T05:16:32.300Z,40.24
2023-04-27T05:17:32.366Z,40.18
2023-04-27T05:18:31.453Z,40.16
2023-04-27T05:19:32.501Z,40.17
2023-04-27T05:20:31.519Z,40.14
2023-04-27T05:21:32.594Z,40.10
2023-04-27T05:22:32.656Z,40.12
2023-04-27T05:23:32.742Z,40.06
2023-04-27T05:24:32.774Z,40.08
2023-04-27T05:25:31.830Z,40.09
2023-04-27T05:26:32.889Z,40.11
2023-04-27T05:27:32.962Z,40.12
2023-04-27T05:28:33.031Z,40.14
2023-04-27T05:29:32.078Z,40.16
2023-04-27T05:30:32.145Z,40.14
2023-04-27T05:31:33.231Z,40.13
2023-04-27T05:32:32.264Z,40.20
2023-04-27T05:33:32.298Z,40.27
2023-04-27T05:34:32.360Z,40.70
2023-04-27T05:35:32.447Z,40.59
2023-04-27T05:36:33.490Z,40.51
2023-04-27T05:37:32.508Z,40.62
2023-04-27T05:38:32.560Z,41.10
2023-04-27T05:39:33.589Z,41.15
2023-04-27T05:40:32.620Z,42.03
2023-04-27T05:41:33.663Z,42.23
2023-04-27T05:42:32.674Z,42.38
2023-04-27T05:43:33.718Z,42.54
2023-04-27T05:44:32.724Z,42.95
2023-04-27T05:45:33.805Z,43.01
2023-04-27T05:46:32.709Z,43.33
2023-04-27T05:47:32.808Z,43.32
2023-04-27T05:48:33.721Z,43.28
2023-04-27T05:49:33.734Z,43.36
2023-04-27T05:50:32.750Z,41.37
2023-04-27T05:51:32.803Z,40.72
2023-04-27T05:52:34.976Z,41.29
2023-04-27T05:53:33.791Z,41.26
2023-04-27T05:54:33.796Z,41.29
2023-04-27T05:55:32.792Z,41.55
2023-04-27T05:56:32.771Z,42.45
2023-04-27T05:57:32.787Z,42.79
2023-04-27T05:58:33.798Z,43.04
2023-04-27T05:59:32.756Z,43.26
2023-04-27T06:00:33.736Z,42.87
2023-04-27T06:01:33.745Z,42.68
2023-04-27T06:02:32.872Z,42.62
2023-04-27T06:03:34.529Z,42.66
2023-04-27T06:04:33.774Z,42.66
2023-04-27T06:05:33.784Z,42.76
2023-04-27T06:06:32.695Z,42.75
2023-04-27T06:07:32.733Z,42.88
2023-04-27T06:08:32.710Z,43.07
2023-04-27T06:09:33.696Z,43.19
2023-04-27T06:10:33.678Z,43.23
2023-04-27T06:11:33.685Z,43.36
2023-04-27T06:12:33.708Z,43.39
2023-04-27T06:13:33.676Z,43.28
2023-04-27T06:14:32.658Z,43.20
2023-04-27T06:15:32.762Z,43.11
2023-04-27T06:16:33.721Z,43.00
2023-04-27T06:17:33.658Z,43.00
2023-04-27T06:18:32.635Z,42.84
2023-04-27T06:19:33.615Z,42.81
2023-04-27T06:20:33.610Z,42.69
2023-04-27T06:21:33.613Z,42.55
2023-04-27T06:22:33.610Z,42.47
2023-04-27T06:23:32.635Z,42.37
2023-04-27T06:24:32.586Z,42.29
2023-04-27T06:25:33.588Z,42.20
2023-04-27T06:26:32.605Z,42.14
2023-04-27T06:27:32.648Z,42.11
2023-04-27T06:28:32.689Z,41.99
2023-04-27T06:29:33.730Z,41.94
2023-04-27T06:30:32.817Z,41.89
2023-04-27T06:31:33.901Z,41.87
2023-04-27T06:32:33.955Z,41.86
2023-04-27T06:33:34.004Z,41.79
2023-04-27T06:34:34.064Z,41.76
2023-04-27T06:35:34.117Z,41.73
2023-04-27T06:36:33.147Z,41.72
2023-04-27T06:37:34.206Z,41.68
2023-04-27T06:38:34.245Z,41.68
2023-04-27T06:39:34.398Z,41.64
2023-04-27T06:40:34.328Z,41.61
2023-04-27T06:41:34.416Z,41.62
2023-04-27T06:42:34.473Z,41.58
2023-04-27T06:43:33.475Z,41.57
2023-04-27T06:44:34.526Z,41.54
2023-04-27T06:45:34.556Z,41.52
2023-04-27T06:46:34.689Z,41.52
2023-04-27T06:47:33.623Z,41.50
2023-04-27T06:48:34.667Z,41.52
2023-04-27T06:49:34.691Z,41.50
2023-04-27T06:50:33.733Z,41.48
2023-04-27T06:51:33.761Z,41.51
2023-04-27T06:52:34.804Z,41.47
2023-04-27T06:53:35.224Z,41.49
2023-04-27T06:54:33.883Z,41.53
2023-04-27T06:55:34.968Z,42.07
2023-04-27T06:56:35.018Z,41.78
2023-04-27T06:57:34.026Z,41.93
2023-04-27T06:58:35.077Z,42.20
2023-04-27T06:59:34.107Z,42.56
2023-04-27T07:00:34.116Z,42.81
2023-04-27T07:01:35.207Z,42.88
2023-04-27T07:02:34.206Z,43.02
2023-04-27T07:03:35.344Z,43.16
2023-04-27T07:04:35.151Z,43.26
2023-04-27T07:05:35.149Z,43.32
2023-04-27T07:06:35.186Z,43.23
2023-04-27T07:07:35.240Z,43.36
2023-04-27T07:08:34.283Z,43.51
2023-04-27T07:09:34.479Z,43.57
2023-04-27T07:10:34.593Z,43.63
2023-04-27T07:11:34.492Z,43.75
2023-04-27T07:12:35.528Z,43.74
2023-04-27T07:13:35.592Z,43.74
2023-04-27T07:14:35.622Z,43.66
2023-04-27T07:15:34.686Z,43.78
2023-04-27T07:16:35.829Z,43.73
2023-04-27T07:17:35.779Z,43.80
2023-04-27T07:18:35.902Z,43.93
2023-04-27T07:19:34.842Z,43.98
2023-04-27T07:20:35.865Z,43.83
2023-04-27T07:21:35.913Z,43.93
2023-04-27T07:22:35.951Z,43.93
2023-04-27T07:23:34.992Z,44.01
2023-04-27T07:24:36.013Z,43.95
2023-04-27T07:25:36.034Z,44.06
2023-04-27T07:26:36.054Z,44.11
2023-04-27T07:27:35.140Z,44.04
2023-04-27T07:28:36.093Z,44.19
2023-04-27T07:29:36.118Z,44.33
2023-04-27T07:30:35.127Z,44.31
2023-04-27T07:31:35.221Z,44.45
2023-04-27T07:32:35.276Z,44.57
2023-04-27T07:33:35.212Z,44.61
2023-04-27T07:34:49.098Z,44.71
2023-04-27T07:35:36.244Z,44.83
2023-04-27T07:36:35.208Z,44.89
2023-04-27T07:37:36.200Z,44.88
2023-04-27T07:38:35.219Z,44.99
2023-04-27T07:39:36.188Z,44.97
2023-04-27T07:40:36.209Z,45.02
2023-04-27T07:41:36.189Z,44.99
2023-04-27T07:42:36.186Z,45.12
2023-04-27T07:43:36.209Z,44.97
2023-04-27T07:44:35.152Z,45.25
2023-04-27T07:45:35.192Z,45.29
2023-04-27T07:46:35.143Z,44.96
2023-04-27T07:47:35.175Z,45.01
2023-04-27T07:48:36.253Z,45.32
2023-04-27T07:49:35.126Z,45.07
2023-04-27T07:50:35.130Z,45.40
2023-04-27T07:51:36.109Z,45.57
2023-04-27T07:52:36.113Z,45.09
2023-04-27T07:53:36.260Z,45.37
2023-04-27T07:54:35.099Z,45.43
2023-04-27T07:55:35.103Z,45.23
2023-04-27T07:56:36.166Z,45.52
2023-04-27T07:57:35.213Z,45.23
2023-04-27T07:58:36.288Z,45.46
2023-04-27T07:59:36.362Z,42.48
2023-04-27T08:00:35.410Z,42.79
2023-04-27T08:01:35.440Z,41.97
2023-04-27T08:02:36.692Z,41.81
2023-04-27T08:03:35.848Z,41.34
2023-04-27T08:04:36.856Z,41.38
2023-04-27T08:05:36.932Z,42.10
2023-04-27T08:06:35.954Z,41.37
2023-04-27T08:07:39.567Z,41.62
2023-04-27T08:08:36.507Z,41.70
2023-04-27T08:09:35.498Z,41.69
2023-04-27T08:10:36.501Z,41.49
2023-04-27T08:11:35.478Z,41.34
2023-04-27T08:12:36.468Z,42.34
2023-04-27T08:13:36.512Z,43.08
2023-04-27T08:14:36.459Z,43.21
2023-04-27T08:15:36.477Z,43.24
2023-04-27T08:16:36.492Z,43.18
2023-04-27T08:17:36.520Z,43.15
2023-04-27T08:18:36.430Z,43.16
2023-04-27T08:19:36.422Z,43.28
2023-04-27T08:20:35.404Z,43.35
2023-04-27T08:21:36.408Z,43.47
2023-04-27T08:22:36.401Z,43.46
2023-04-27T08:23:36.392Z,43.54
2023-04-27T08:24:36.442Z,43.64
2023-04-27T08:25:36.424Z,43.75
2023-04-27T08:26:35.440Z,43.76
2023-04-27T08:27:36.459Z,43.90
2023-04-27T08:28:36.467Z,43.94
2023-04-27T08:29:36.469Z,44.00
2023-04-27T08:30:36.487Z,44.11
2023-04-27T08:31:35.685Z,44.25
2023-04-27T08:32:35.654Z,44.23
2023-04-27T08:33:36.671Z,44.42
2023-04-27T08:34:36.698Z,44.47
2023-04-27T08:35:36.770Z,44.61
2023-04-27T08:36:35.783Z,44.71
2023-04-27T08:37:36.828Z,44.76
2023-04-27T08:38:36.880Z,44.83
2023-04-27T08:39:36.907Z,45.00
2023-04-27T08:40:36.947Z,44.99
2023-04-27T08:41:36.954Z,45.36
2023-04-27T08:42:36.013Z,45.55
2023-04-27T08:43:37.355Z,45.26
2023-04-27T08:44:37.099Z,45.31
2023-04-27T08:45:36.139Z,45.36
2023-04-27T08:46:37.193Z,45.29
2023-04-27T08:47:43.442Z,45.37
2023-04-27T08:48:37.258Z,45.44
2023-04-27T08:49:37.244Z,45.56
2023-04-27T08:50:37.185Z,45.73
2023-04-27T08:51:37.172Z,45.61
2023-04-27T08:52:37.198Z,45.79
2023-04-27T08:53:36.169Z,46.08
2023-04-27T08:54:37.168Z,46.18
2023-04-27T08:55:37.222Z,46.07
2023-04-27T08:56:36.149Z,46.22
2023-04-27T08:57:37.147Z,46.47
2023-04-27T08:58:37.122Z,46.85
2023-04-27T08:59:37.153Z,46.77
2023-04-27T09:00:36.117Z,46.70
2023-04-27T09:01:37.160Z,46.84
2023-04-27T09:02:37.246Z,46.94
2023-04-27T09:03:37.319Z,46.91
2023-04-27T09:04:36.383Z,46.85
2023-04-27T09:05:37.319Z,46.90
2023-04-27T09:06:36.450Z,47.09
2023-04-27T09:07:37.355Z,46.96
2023-04-27T09:08:37.407Z,47.25
2023-04-27T09:09:37.424Z,47.16
2023-04-27T09:10:37.456Z,47.29
2023-04-27T09:11:36.509Z,47.53
2023-04-27T09:12:37.530Z,47.64
2023-04-27T09:13:37.579Z,47.67
2023-04-27T09:14:36.639Z,47.87
2023-04-27T09:15:37.641Z,47.66
2023-04-27T09:16:37.719Z,47.92
2023-04-27T09:17:37.741Z,47.90
2023-04-27T09:18:36.724Z,47.98
2023-04-27T09:19:37.871Z,48.01
2023-04-27T09:20:37.781Z,48.21
2023-04-27T09:21:37.786Z,48.16
2023-04-27T09:22:37.804Z,48.01
2023-04-27T09:23:37.834Z,48.19
2023-04-27T09:24:36.897Z,48.48
2023-04-27T09:25:37.915Z,48.46
2023-04-27T09:26:36.970Z,48.47
2023-04-27T09:27:37.010Z,48.57
2023-04-27T09:28:38.076Z,48.44
2023-04-27T09:29:38.137Z,48.86
2023-04-27T09:30:38.172Z,48.82
2023-04-27T09:31:38.237Z,48.97
2023-04-27T09:32:37.231Z,48.85
2023-04-27T09:33:38.244Z,48.99
2023-04-27T09:34:38.281Z,48.85
2023-04-27T09:35:37.333Z,48.90
2023-04-27T09:36:38.344Z,48.98
2023-04-27T09:37:38.378Z,49.23
2023-04-27T09:38:37.458Z,49.30
2023-04-27T09:39:38.481Z,49.53
2023-04-27T09:40:38.502Z,49.45
2023-04-27T09:41:38.487Z,49.57
2023-04-27T09:42:37.497Z,49.61
2023-04-27T09:43:38.485Z,49.66
2023-04-27T09:44:38.575Z,49.80
2023-04-27T09:45:37.611Z,49.75
2023-04-27T09:46:37.561Z,49.76
2023-04-27T09:47:38.653Z,49.63
2023-04-27T09:48:38.666Z,49.51
2023-04-27T09:49:38.840Z,49.21
2023-04-27T09:50:38.628Z,49.30
2023-04-27T09:51:38.695Z,49.33
2023-04-27T09:52:38.736Z,49.39
2023-04-27T09:53:38.811Z,49.35
2023-04-27T09:54:37.891Z,49.45
2023-04-27T09:55:37.873Z,49.44
2023-04-27T09:56:38.887Z,49.62
2023-04-27T09:57:38.898Z,49.80
2023-04-27T09:58:38.916Z,49.91
2023-04-27T09:59:37.925Z,49.94
2023-04-27T10:00:38.927Z,49.94
2023-04-27T10:01:39.045Z,50.03
2023-04-27T10:02:52.207Z,50.20
2023-04-27T10:03:39.083Z,50.24
2023-04-27T10:04:39.147Z,50.19
2023-04-27T10:05:37.971Z,50.12
2023-04-27T10:06:38.954Z,50.21
2023-04-27T10:07:38.967Z,50.23
2023-04-27T10:08:38.955Z,50.36
2023-04-27T10:09:38.925Z,50.27
2023-04-27T10:10:37.926Z,50.24
2023-04-27T10:11:37.926Z,50.28
2023-04-27T10:12:38.907Z,50.14
2023-04-27T10:13:38.892Z,50.20
2023-04-27T10:14:37.889Z,50.27
2023-04-27T10:15:38.916Z,50.25
2023-04-27T10:16:37.954Z,50.13
2023-04-27T10:17:38.979Z,50.16
2023-04-27T10:18:38.991Z,50.16
2023-04-27T10:19:39.026Z,50.04
2023-04-27T10:20:39.071Z,50.20
2023-04-27T10:21:39.117Z,50.13
2023-04-27T10:22:39.420Z,50.05
2023-04-27T10:23:38.213Z,50.03
2023-04-27T10:24:39.242Z,50.05
2023-04-27T10:25:39.283Z,49.80
2023-04-27T10:26:39.990Z,49.92
2023-04-27T10:27:39.354Z,49.77
2023-04-27T10:28:39.400Z,49.99
2023-04-27T10:29:39.438Z,49.90
2023-04-27T10:30:39.688Z,49.81
2023-04-27T10:31:39.505Z,49.96
2023-04-27T10:32:38.635Z,49.87
2023-04-27T10:33:38.605Z,49.95
2023-04-27T10:34:39.624Z,49.92
2023-04-27T10:35:38.665Z,49.75
2023-04-27T10:36:39.717Z,49.77
2023-04-27T10:37:39.736Z,49.82
2023-04-27T10:38:39.805Z,49.90
2023-04-27T10:39:47.025Z,49.68
2023-04-27T10:40:39.823Z,49.74
2023-04-27T10:41:38.804Z,49.86
2023-04-27T10:42:39.792Z,49.83
2023-04-27T10:43:38.784Z,49.82
2023-04-27T10:44:39.818Z,49.88
2023-04-27T10:45:39.783Z,49.71
2023-04-27T10:46:39.817Z,49.73
2023-04-27T10:47:38.859Z,49.49
2023-04-27T10:48:38.750Z,49.72
2023-04-27T10:49:38.744Z,49.76
2023-04-27T10:50:38.745Z,49.73
2023-04-27T10:51:39.743Z,49.75
2023-04-27T10:52:38.747Z,49.69
2023-04-27T10:53:38.735Z,49.56
2023-04-27T10:54:39.736Z,49.66
2023-04-27T10:55:38.707Z,49.81
2023-04-27T10:56:39.688Z,49.81
2023-04-27T10:57:39.688Z,49.50
2023-04-27T10:59:38.704Z,49.69
2023-04-27T11:00:38.671Z,49.77
2023-04-27T11:01:39.705Z,49.75
2023-04-27T11:02:38.695Z,49.73
2023-04-27T11:03:39.941Z,49.62
2023-04-27T11:04:39.703Z,49.67
2023-04-27T11:05:39.651Z,49.75
2023-04-27T11:06:39.650Z,49.70
2023-04-27T11:07:39.644Z,49.71
2023-04-27T11:08:38.605Z,49.75
2023-04-27T11:09:39.640Z,49.64
2023-04-27T11:10:38.612Z,49.74
2023-04-27T11:11:39.644Z,49.63
2023-04-27T11:12:39.570Z,49.57
2023-04-27T11:13:38.605Z,49.70
2023-04-27T11:14:38.558Z,49.67
2023-04-27T11:15:39.582Z,49.66
2023-04-27T11:16:39.636Z,49.71
2023-04-27T11:17:39.571Z,49.52
2023-04-27T11:18:38.561Z,49.55
2023-04-27T11:19:38.550Z,49.68
2023-04-27T11:20:38.610Z,49.68
2023-04-27T11:21:39.647Z,49.80
2023-04-27T11:22:38.693Z,49.79
2023-04-27T11:23:38.786Z,49.72
2023-04-27T11:24:40.098Z,49.70
2023-04-27T11:25:38.867Z,49.73
2023-04-27T11:26:39.959Z,49.70
2023-04-27T11:27:40.004Z,49.67
2023-04-27T11:28:39.079Z,49.63
2023-04-27T11:29:40.100Z,49.65
2023-04-27T11:30:39.161Z,49.64
2023-04-27T11:31:39.242Z,49.75
2023-04-27T11:32:39.299Z,49.81
2023-04-27T11:33:40.325Z,49.79
2023-04-27T11:34:40.386Z,49.86
2023-04-27T11:35:39.465Z,49.88
2023-04-27T11:36:40.522Z,49.95
2023-04-27T11:37:40.564Z,50.03
2023-04-27T11:38:39.689Z,50.06
2023-04-27T11:39:39.701Z,50.05
2023-04-27T11:40:39.755Z,50.03
2023-04-27T11:41:40.813Z,50.11
2023-04-27T11:42:40.936Z,50.12
2023-04-27T11:43:40.956Z,50.18
2023-04-27T11:44:40.998Z,50.18
2023-04-27T11:45:40.074Z,50.17
2023-04-27T11:46:41.177Z,50.22
2023-04-27T11:47:41.203Z,50.18
2023-04-27T11:48:41.238Z,50.17
2023-04-27T11:49:40.296Z,50.21
2023-04-27T11:50:41.362Z,50.20
2023-04-27T11:51:41.429Z,50.22
2023-04-27T11:52:40.490Z,50.16
2023-04-27T11:53:40.618Z,50.16
2023-04-27T11:54:41.601Z,50.04
2023-04-27T11:55:41.686Z,50.04
2023-04-27T11:56:41.734Z,50.05
2023-04-27T11:57:41.811Z,50.04
2023-04-27T11:58:40.885Z,50.06
2023-04-27T11:59:40.916Z,50.12
2023-04-27T12:00:41.970Z,50.06
2023-04-27T12:01:42.044Z,50.13
2023-04-27T12:02:41.390Z,50.12
2023-04-27T12:03:41.262Z,50.11
2023-04-27T12:04:41.374Z,50.12
2023-04-27T12:05:42.223Z,50.15
2023-04-27T12:06:42.241Z,50.16
2023-04-27T12:07:42.278Z,50.07
2023-04-27T12:08:42.301Z,50.15
2023-04-27T12:09:41.342Z,50.08
2023-04-27T12:10:42.426Z,50.10
2023-04-27T12:11:41.423Z,50.08
2023-04-27T12:12:41.487Z,50.05
2023-04-27T12:13:42.524Z,50.01
2023-04-27T12:14:42.571Z,50.06
2023-04-27T12:15:41.588Z,50.01
2023-04-27T12:16:41.648Z,50.05
2023-04-27T12:17:41.704Z,50.06
2023-04-27T12:18:42.728Z,50.00
2023-04-27T12:19:42.739Z,49.96
2023-04-27T12:20:41.788Z,49.90
2023-04-27T12:21:42.849Z,49.93
2023-04-27T12:22:42.915Z,49.88
2023-04-27T12:23:42.974Z,49.93
2023-04-27T12:24:42.962Z,49.93
2023-04-27T12:25:42.003Z,49.80
2023-04-27T12:26:43.061Z,49.94
2023-04-27T12:27:43.101Z,49.94
2023-04-27T12:28:43.133Z,48.94
2023-04-27T12:29:42.159Z,47.30
2023-04-27T12:30:42.220Z,46.79
2023-04-27T12:31:43.273Z,46.28
2023-04-27T12:32:42.301Z,46.04
2023-04-27T12:33:43.321Z,45.85
2023-04-27T12:34:42.364Z,45.29
2023-04-27T12:35:43.865Z,44.82
2023-04-27T12:36:43.372Z,44.73
2023-04-27T12:37:43.406Z,44.21
2023-04-27T12:38:42.444Z,44.04
2023-04-27T12:39:42.506Z,43.76
2023-04-27T12:40:43.572Z,43.57
2023-04-27T12:41:42.628Z,43.35
2023-04-27T12:42:43.683Z,42.93
2023-04-27T12:43:42.690Z,43.05
2023-04-27T12:44:43.696Z,43.06
2023-04-27T12:45:43.734Z,43.10
2023-04-27T12:46:43.813Z,42.84
2023-04-27T12:47:58.676Z,43.64
2023-04-27T12:48:43.841Z,43.61
2023-04-27T12:49:42.773Z,43.44
2023-04-27T12:50:43.769Z,43.43
2023-04-27T12:51:42.760Z,43.33
2023-04-27T12:52:43.757Z,43.25
2023-04-27T12:53:43.759Z,43.21
2023-04-27T12:54:43.755Z,43.03
2023-04-27T12:55:42.750Z,43.08
2023-04-27T12:56:43.733Z,42.99
2023-04-27T12:57:43.719Z,42.88
2023-04-27T12:58:42.704Z,42.89
2023-04-27T12:59:42.713Z,42.80
2023-04-27T13:00:43.692Z,42.73
2023-04-27T13:01:43.734Z,42.83
2023-04-27T13:02:42.863Z,42.79
2023-04-27T13:03:43.938Z,42.70
2023-04-27T13:04:43.927Z,42.77
2023-04-27T13:05:43.899Z,42.86
2023-04-27T13:06:43.944Z,42.90
2023-04-27T13:07:42.998Z,42.87
2023-04-27T13:08:44.000Z,42.90
2023-04-27T13:09:44.056Z,42.96
2023-04-27T13:10:43.074Z,42.93
2023-04-27T13:11:44.088Z,42.89
2023-04-27T13:12:43.131Z,43.01
2023-04-27T13:13:44.162Z,43.17
2023-04-27T13:14:44.190Z,43.18
2023-04-27T13:15:43.331Z,42.91
2023-04-27T13:16:44.245Z,43.14
2023-04-27T13:17:44.021Z,43.21
2023-04-27T13:18:43.305Z,43.19
2023-04-27T13:19:44.307Z,43.21
2023-04-27T13:20:43.332Z,43.27
2023-04-27T13:21:43.346Z,43.30
2023-04-27T13:22:44.356Z,43.37
2023-04-27T13:23:43.398Z,43.43
2023-04-27T13:24:43.404Z,43.40
2023-04-27T13:25:44.428Z,43.45
2023-04-27T13:26:44.653Z,43.43
2023-04-27T13:27:43.426Z,43.42
2023-04-27T13:28:44.450Z,43.46
2023-04-27T13:29:44.470Z,43.49
2023-04-27T13:30:43.492Z,43.55
2023-04-27T13:31:43.523Z,43.56
2023-04-27T13:32:44.523Z,43.50
2023-04-27T13:33:43.478Z,43.53
2023-04-27T13:34:44.522Z,43.60
2023-04-27T13:35:44.492Z,43.56
2023-04-27T13:36:44.524Z,43.60
2023-04-27T13:37:44.538Z,43.63
2023-04-27T13:38:44.524Z,43.65
2023-04-27T13:39:44.528Z,43.67
2023-04-27T13:40:44.538Z,43.66
2023-04-27T13:41:43.548Z,43.71
2023-04-27T13:42:43.558Z,43.70
2023-04-27T13:43:43.596Z,43.71
2023-04-27T13:44:43.569Z,43.70
2023-04-27T13:45:43.579Z,43.72
2023-04-27T13:46:43.651Z,43.72
2023-04-27T13:47:44.616Z,43.77
2023-04-27T13:48:44.586Z,43.77
2023-04-27T13:49:44.605Z,43.76
2023-04-27T13:50:44.638Z,43.82
2023-04-27T13:51:43.622Z,43.82
2023-04-27T13:52:44.622Z,43.85
2023-04-27T13:53:44.676Z,43.84
2023-04-27T13:54:43.632Z,43.84
2023-04-27T13:55:44.640Z,43.90
2023-04-27T13:56:43.649Z,43.90
2023-04-27T13:57:43.651Z,43.89
2023-04-27T13:58:43.692Z,43.88
2023-04-27T13:59:43.648Z,43.97
2023-04-27T14:00:44.701Z,43.95
2023-04-27T14:01:43.803Z,43.92
2023-04-27T14:02:44.760Z,43.92
2023-04-27T14:03:44.071Z,43.92
2023-04-27T14:04:44.718Z,43.99
2023-04-27T14:05:43.671Z,44.00
2023-04-27T14:06:44.709Z,44.00
2023-04-27T14:07:44.680Z,44.02
2023-04-27T14:08:43.695Z,44.02
2023-04-27T14:09:44.690Z,43.98
2023-04-27T14:10:43.685Z,44.03
2023-04-27T14:11:55.766Z,44.03
2023-04-27T14:12:44.669Z,44.08
2023-04-27T14:13:44.684Z,44.06
2023-04-27T14:14:43.669Z,44.05
2023-04-27T14:15:43.649Z,44.07
2023-04-27T14:16:44.713Z,44.07
2023-04-27T14:17:43.675Z,44.09
2023-04-27T14:18:44.649Z,44.02
2023-04-27T14:19:43.628Z,44.04
2023-04-27T14:20:43.640Z,43.96
2023-04-27T14:21:43.619Z,44.01
2023-04-27T14:22:44.636Z,44.01
2023-04-27T14:23:43.598Z,44.01
2023-04-27T14:24:44.596Z,44.03
2023-04-27T14:25:43.576Z,44.06
2023-04-27T14:26:44.578Z,44.05
2023-04-27T14:27:44.582Z,44.06
2023-04-27T14:28:44.558Z,44.09
2023-04-27T14:29:44.558Z,44.09
2023-04-27T14:30:44.549Z,44.09
2023-04-27T14:31:44.563Z,44.09
2023-04-27T14:32:43.586Z,44.15
2023-04-27T14:33:43.524Z,44.10
2023-04-27T14:34:44.517Z,44.08
2023-04-27T14:35:44.514Z,44.08
2023-04-27T14:36:44.517Z,44.23
2023-04-27T14:37:44.514Z,44.17
2023-04-27T14:38:43.516Z,44.14
2023-04-27T14:39:45.268Z,44.19
2023-04-27T14:40:43.484Z,44.22
2023-04-27T14:41:44.476Z,44.14
2023-04-27T14:42:43.476Z,44.29
2023-04-27T14:43:43.454Z,44.28
2023-04-27T14:44:43.452Z,44.21
2023-04-27T14:45:51.529Z,44.24
2023-04-27T14:46:44.477Z,44.23
2023-04-27T14:47:44.462Z,44.27
2023-04-27T14:48:44.422Z,44.29
2023-04-27T14:49:44.428Z,44.25
2023-04-27T14:50:43.425Z,44.23
2023-04-27T14:51:43.758Z,44.27
2023-04-27T14:52:43.394Z,44.23
2023-04-27T14:53:43.389Z,44.28
2023-04-27T14:54:44.420Z,44.21
2023-04-27T14:55:44.380Z,44.22
2023-04-27T14:56:43.388Z,44.26
2023-04-27T14:57:43.359Z,44.24
2023-04-27T14:58:44.367Z,44.27
2023-04-27T14:59:44.362Z,44.28
2023-04-27T15:00:43.344Z,44.25
2023-04-27T15:01:44.359Z,44.22
2023-04-27T15:02:44.406Z,44.19
2023-04-27T15:03:44.523Z,44.15
2023-04-27T15:04:44.457Z,44.17
2023-04-27T15:05:43.308Z,44.12
2023-04-27T15:06:43.302Z,44.16
2023-04-27T15:07:44.308Z,44.13
2023-04-27T15:08:44.277Z,44.10
2023-04-27T15:09:43.275Z,44.10
2023-04-27T15:10:44.285Z,44.05
2023-04-27T15:11:43.256Z,44.08
2023-04-27T15:12:43.255Z,44.09
2023-04-27T15:13:43.233Z,44.09
2023-04-27T15:14:43.226Z,44.09
2023-04-27T15:15:43.307Z,44.06
2023-04-27T15:16:43.311Z,44.08
2023-04-27T15:17:44.216Z,44.07
2023-04-27T15:18:43.206Z,44.08
2023-04-27T15:19:44.187Z,44.08
2023-04-27T15:20:44.714Z,44.10
2023-04-27T15:21:43.185Z,44.04
2023-04-27T15:22:43.167Z,44.10
2023-04-27T15:23:44.227Z,44.05
2023-04-27T15:24:44.170Z,44.07
2023-04-27T15:25:43.165Z,44.06
2023-04-27T15:26:44.180Z,44.06
2023-04-27T15:27:43.144Z,44.07
2023-04-27T15:28:43.163Z,44.06
2023-04-27T15:29:43.134Z,44.06
